Time;durP1;ratioP1;P1;durP2;ratioP2;P2;SDS_P1;SDS_P2;PMS_P1;PMS_P2;Temp;Humidity;BMP_temperature;BMP_pressure;BME280_temperature;BME280_humidity;BME280_pressure;Samples;Min_cycle;Max_cycle;Signal;HPM_P1;HPM_P2
2023/03/25 06:00:49;;;;;;;1.93;1.20;;;8.50;97.20;;;;;;1707560;28;20206;-64
2023/03/25 06:01:44;;;;;;;3.55;1.50;;;8.50;97.20;;;;;;1707413;29;20213;-64
2023/03/25 06:02:37;;;;;;;1.95;0.90;;;8.50;97.20;;;;;;1707376;29;20684;-64
2023/03/25 06:03:28;;;;;;;5.82;1.90;;;8.60;97.20;;;;;;1707389;29;20265;-63
2023/03/25 06:04:20;;;;;;;5.47;2.73;;;8.60;97.20;;;;;;1707417;28;20222;-64
2023/03/25 06:05:12;;;;;;;3.83;1.35;;;8.60;97.20;;;;;;1707189;29;20591;-64
2023/03/25 06:06:05;;;;;;;3.45;1.20;;;8.60;97.20;;;;;;1707422;29;20209;-65
2023/03/25 06:06:55;;;;;;;2.45;1.10;;;8.60;97.20;;;;;;1707326;29;20225;-64
2023/03/25 06:07:48;;;;;;;3.47;1.00;;;8.60;97.20;;;;;;1707439;29;20205;-64
2023/03/25 06:08:40;;;;;;;2.85;1.23;;;8.60;97.20;;;;;;1707325;29;20237;-65
2023/03/25 06:09:33;;;;;;;4.38;1.40;;;8.60;97.20;;;;;;1707112;29;20195;-64
2023/03/25 06:10:24;;;;;;;4.25;1.55;;;8.70;97.20;;;;;;1706084;29;20693;-65
2023/03/25 06:11:17;;;;;;;3.97;1.57;;;8.70;97.20;;;;;;1707441;28;20619;-65
2023/03/25 06:12:08;;;;;;;3.13;1.60;;;8.70;97.20;;;;;;1707175;28;20202;-64
2023/03/25 06:13:00;;;;;;;3.20;1.20;;;8.70;97.20;;;;;;1707328;29;20202;-63
2023/03/25 06:13:51;;;;;;;3.28;1.20;;;8.70;97.20;;;;;;1707430;29;20210;-64
2023/03/25 06:14:44;;;;;;;3.28;1.40;;;8.70;97.20;;;;;;1707441;29;20657;-64
2023/03/25 06:15:38;;;;;;;5.60;1.50;;;8.80;97.20;;;;;;1707121;29;20202;-64
2023/03/25 06:16:32;;;;;;;2.42;1.30;;;8.80;97.20;;;;;;1707311;29;20206;-65
2023/03/25 06:17:23;;;;;;;4.07;1.40;;;8.80;97.20;;;;;;1707362;29;20206;-64
2023/03/25 06:18:15;;;;;;;3.22;1.30;;;8.80;97.20;;;;;;1707288;29;20206;-64
2023/03/25 06:19:08;;;;;;;3.80;1.33;;;8.80;97.20;;;;;;1707310;29;20202;-65
2023/03/25 06:20:04;;;;;;;2.25;1.23;;;8.80;97.20;;;;;;1707350;29;20202;-64
2023/03/25 06:20:56;;;;;;;3.17;1.25;;;8.80;97.20;;;;;;1707244;28;20281;-64
2023/03/25 06:21:50;;;;;;;2.67;1.00;;;8.90;97.20;;;;;;1707366;29;20638;-64
2023/03/25 06:22:43;;;;;;;2.47;1.13;;;8.90;97.20;;;;;;1707252;29;20206;-64
2023/03/25 06:23:34;;;;;;;2.45;0.95;;;9.00;97.20;;;;;;1706593;29;20202;-65
2023/03/25 06:24:25;;;;;;;3.17;1.20;;;9.00;97.20;;;;;;1707212;28;20673;-64
2023/03/25 06:25:19;;;;;;;4.20;1.00;;;9.00;97.20;;;;;;1707043;28;20630;-65
2023/03/25 06:26:10;;;;;;;2.70;1.35;;;9.00;97.20;;;;;;1707247;28;20458;-65
2023/03/25 06:27:02;;;;;;;3.10;1.50;;;9.00;97.20;;;;;;1707216;28;20214;-64
2023/03/25 06:27:54;;;;;;;3.50;0.95;;;9.10;97.20;;;;;;1707042;28;20465;-64
2023/03/25 06:28:46;;;;;;;4.68;1.20;;;9.10;97.20;;;;;;1707039;29;20293;-64
2023/03/25 06:29:37;;;;;;;3.45;1.10;;;9.10;97.20;;;;;;1707398;28;20209;-65
2023/03/25 06:30:29;;;;;;;2.93;1.10;;;9.20;97.20;;;;;;1707194;28;20194;-65
2023/03/25 06:31:25;;;;;;;2.55;0.98;;;9.20;97.20;;;;;;1707162;28;20198;-65
2023/03/25 06:32:18;;;;;;;3.00;1.13;;;9.20;97.20;;;;;;1707303;28;20269;-66
2023/03/25 06:33:09;;;;;;;3.80;1.13;;;9.20;97.20;;;;;;1707226;28;20202;-65
2023/03/25 06:34:01;;;;;;;3.38;0.93;;;9.20;97.20;;;;;;1707346;28;20685;-65
2023/03/25 06:34:52;;;;;;;2.45;1.00;;;9.20;97.20;;;;;;1707263;28;20214;-65
2023/03/25 06:35:48;;;;;;;2.20;0.90;;;9.20;97.20;;;;;;1707062;28;20277;-65
2023/03/25 06:36:39;;;;;;;3.80;1.30;;;9.20;97.20;;;;;;1707282;28;20260;-64
2023/03/25 06:37:31;;;;;;;3.40;1.30;;;9.30;97.20;;;;;;1707241;28;20273;-63
2023/03/25 06:38:21;;;;;;;2.75;1.30;;;9.30;97.20;;;;;;1707390;28;20199;-63
2023/03/25 06:39:13;;;;;;;2.70;1.10;;;9.30;97.20;;;;;;1707244;28;20200;-65
2023/03/25 06:40:05;;;;;;;4.15;1.42;;;9.30;97.20;;;;;;1707318;28;20299;-64
2023/03/25 06:40:57;;;;;;;3.22;1.30;;;9.30;97.20;;;;;;1706939;28;20227;-63
2023/03/25 06:41:47;;;;;;;6.15;1.63;;;9.40;97.20;;;;;;1707338;28;20720;-64
2023/03/25 06:42:40;;;;;;;4.33;1.43;;;9.40;97.20;;;;;;1707327;28;20664;-65
2023/03/25 06:43:31;;;;;;;2.20;1.10;;;9.50;97.20;;;;;;1707260;28;20213;-64
2023/03/25 06:44:23;;;;;;;2.07;1.07;;;9.50;97.20;;;;;;1707331;28;20305;-64
2023/03/25 06:45:14;;;;;;;2.67;1.20;;;9.50;97.20;;;;;;1706994;28;20669;-64
2023/03/25 06:46:07;;;;;;;3.35;1.50;;;9.40;97.20;;;;;;1707290;28;20208;-63
2023/03/25 06:46:59;;;;;;;6.80;1.35;;;9.40;97.20;;;;;;1707203;28;20217;-63
2023/03/25 06:47:52;;;;;;;3.60;1.25;;;9.40;97.20;;;;;;1707250;28;20202;-64
2023/03/25 06:48:43;;;;;;;3.20;1.10;;;9.40;97.20;;;;;;1707064;28;20209;-64
2023/03/25 06:49:34;;;;;;;2.07;1.00;;;9.40;97.20;;;;;;1707235;29;20191;-64
2023/03/25 06:50:25;;;;;;;2.35;1.10;;;9.40;97.20;;;;;;1707277;28;20203;-64
2023/03/25 06:51:17;;;;;;;4.90;1.27;;;9.40;97.20;;;;;;1707317;29;20198;-66
2023/03/25 06:52:08;;;;;;;3.75;1.50;;;9.50;97.20;;;;;;1707130;29;20210;-65
2023/03/25 06:53:00;;;;;;;1.60;0.90;;;9.50;97.20;;;;;;1707287;29;20293;-65
2023/03/25 06:53:50;;;;;;;2.90;0.88;;;9.50;97.20;;;;;;1707220;29;20217;-66
2023/03/25 06:54:42;;;;;;;3.50;1.13;;;9.50;97.20;;;;;;1707148;29;20281;-65
2023/03/25 06:55:33;;;;;;;1.88;1.00;;;9.50;97.20;;;;;;1706956;28;20206;-65
2023/03/25 06:56:25;;;;;;;2.83;1.03;;;9.60;97.20;;;;;;1707265;28;20286;-65
2023/03/25 06:57:16;;;;;;;2.92;1.30;;;9.60;97.20;;;;;;1706812;29;20195;-64
2023/03/25 06:58:07;;;;;;;2.70;1.30;;;9.60;97.20;;;;;;1707263;28;20218;-67
2023/03/25 06:58:58;;;;;;;2.17;0.90;;;9.70;97.20;;;;;;1707227;28;20692;-64
2023/03/25 06:59:50;;;;;;;2.30;0.80;;;9.70;97.20;;;;;;1707749;28;20589;-66
2023/03/25 07:00:40;;;;;;;2.85;1.20;;;9.70;97.20;;;;;;1708563;28;20256;-66
2023/03/25 07:01:32;;;;;;;2.37;1.20;;;9.80;97.20;;;;;;1708556;28;20228;-65
2023/03/25 07:02:23;;;;;;;2.38;0.80;;;9.80;97.20;;;;;;1708620;28;20210;-65
2023/03/25 07:03:16;;;;;;;2.40;1.03;;;9.80;97.20;;;;;;1708344;28;20196;-64
2023/03/25 07:04:07;;;;;;;3.95;1.20;;;9.90;97.20;;;;;;1708510;28;20210;-66
2023/03/25 07:04:59;;;;;;;1.53;0.80;;;9.90;97.20;;;;;;1708569;28;20238;-65
2023/03/25 07:05:49;;;;;;;1.80;0.77;;;10.00;97.20;;;;;;1708286;28;20207;-65
2023/03/25 07:06:41;;;;;;;3.10;1.33;;;10.00;97.20;;;;;;1708407;28;20281;-65
2023/03/25 07:07:32;;;;;;;2.88;1.30;;;10.10;97.20;;;;;;1708548;28;20209;-65
2023/03/25 07:08:24;;;;;;;3.40;0.90;;;10.10;97.20;;;;;;1708606;28;20288;-65
2023/03/25 07:09:14;;;;;;;3.60;1.40;;;10.20;97.20;;;;;;1708547;28;20206;-64
2023/03/25 07:10:07;;;;;;;2.10;0.73;;;10.20;97.20;;;;;;1708493;28;20233;-66
2023/03/25 07:11:00;;;;;;;1.42;0.77;;;10.20;97.20;;;;;;1708454;28;20222;-65
2023/03/25 07:11:52;;;;;;;3.30;0.85;;;10.30;97.20;;;;;;1708474;28;20194;-66
2023/03/25 07:12:43;;;;;;;3.63;1.00;;;10.30;97.20;;;;;;1708476;28;20209;-65
2023/03/25 07:13:35;;;;;;;2.90;0.87;;;10.40;97.20;;;;;;1708216;28;20213;-65
2023/03/25 07:14:25;;;;;;;2.72;0.77;;;10.50;97.20;;;;;;1708381;29;20473;-65
2023/03/25 07:15:17;;;;;;;1.63;0.80;;;10.50;97.20;;;;;;1708121;29;20203;-64
2023/03/25 07:16:09;;;;;;;2.55;1.02;;;10.70;97.20;;;;;;1708263;29;20206;-65
2023/03/25 07:17:00;;;;;;;3.95;1.00;;;10.80;97.20;;;;;;1708430;28;20622;-65
2023/03/25 07:17:51;;;;;;;1.80;0.77;;;10.90;97.20;;;;;;1708487;28;20206;-65
2023/03/25 07:18:45;;;;;;;3.72;1.25;;;10.90;97.20;;;;;;1708528;28;20222;-65
2023/03/25 07:19:35;;;;;;;4.22;1.40;;;11.00;97.20;;;;;;1708367;28;20568;-65
2023/03/25 07:20:27;;;;;;;2.93;0.87;;;11.10;97.20;;;;;;1708337;28;20234;-65
2023/03/25 07:21:18;;;;;;;2.83;1.00;;;11.10;97.20;;;;;;1708481;28;20199;-65
2023/03/25 07:22:10;;;;;;;1.80;0.90;;;11.20;97.20;;;;;;1708430;28;20203;-65
2023/03/25 07:23:00;;;;;;;3.67;0.95;;;11.20;97.20;;;;;;1708454;28;20217;-65
2023/03/25 07:23:53;;;;;;;1.50;1.07;;;11.30;97.20;;;;;;1708453;28;20251;-64
2023/03/25 07:24:44;;;;;;;1.70;1.08;;;11.30;97.20;;;;;;1708436;28;20202;-66
2023/03/25 07:25:35;;;;;;;3.00;1.20;;;11.30;97.20;;;;;;1708151;28;20226;-65
2023/03/25 07:26:26;;;;;;;3.58;1.30;;;11.30;97.20;;;;;;1708396;28;20202;-65
2023/03/25 07:27:18;;;;;;;1.80;1.00;;;11.30;97.20;;;;;;1708453;28;20206;-64
2023/03/25 07:28:09;;;;;;;1.38;0.90;;;11.20;97.20;;;;;;1708423;28;20210;-65
2023/03/25 07:29:02;;;;;;;1.80;0.80;;;11.20;97.20;;;;;;1708423;28;20199;-66
2023/03/25 07:29:53;;;;;;;1.92;1.15;;;11.10;97.20;;;;;;1708165;28;20536;-65
2023/03/25 07:30:44;;;;;;;1.47;1.00;;;11.10;97.20;;;;;;1708098;28;20293;-65
2023/03/25 07:31:35;;;;;;;2.65;1.10;;;11.10;97.20;;;;;;1708401;28;20454;-65
2023/03/25 07:32:27;;;;;;;1.73;1.37;;;11.10;97.20;;;;;;1708339;28;20696;-65
2023/03/25 07:33:18;;;;;;;2.95;1.00;;;11.00;97.20;;;;;;1708351;28;20684;-65
2023/03/25 07:34:11;;;;;;;1.67;0.87;;;11.00;97.20;;;;;;1708364;28;20671;-65
2023/03/25 07:35:02;;;;;;;1.65;0.70;;;11.00;97.20;;;;;;1708438;28;20213;-64
2023/03/25 07:35:54;;;;;;;2.80;0.70;;;10.90;97.20;;;;;;1707984;28;20207;-64
2023/03/25 07:36:45;;;;;;;1.73;0.90;;;10.90;97.20;;;;;;1708220;28;20210;-64
2023/03/25 07:37:36;;;;;;;3.20;1.27;;;10.80;97.20;;;;;;1708416;28;20257;-64
2023/03/25 07:38:27;;;;;;;2.90;0.95;;;10.80;97.20;;;;;;1708365;28;20203;-65
2023/03/25 07:39:20;;;;;;;1.17;0.57;;;10.70;97.20;;;;;;1708397;28;20199;-64
2023/03/25 07:40:12;;;;;;;1.42;0.60;;;10.70;97.20;;;;;;1708136;28;20496;-65
2023/03/25 07:41:05;;;;;;;1.58;0.70;;;10.60;97.20;;;;;;1708425;28;20207;-65
2023/03/25 07:41:56;;;;;;;1.60;0.98;;;10.50;97.20;;;;;;1708287;28;20621;-65
2023/03/25 07:42:48;;;;;;;2.50;0.93;;;10.50;97.20;;;;;;1708322;28;20603;-65
2023/03/25 07:43:39;;;;;;;2.15;1.00;;;10.40;97.20;;;;;;1708307;28;20205;-65
2023/03/25 07:44:31;;;;;;;1.60;0.80;;;10.40;97.20;;;;;;1708285;28;20202;-66
2023/03/25 07:45:22;;;;;;;2.15;0.80;;;10.30;97.20;;;;;;1708003;28;20218;-65
2023/03/25 07:46:13;;;;;;;1.27;0.77;;;10.30;97.20;;;;;;1708374;28;20210;-65
2023/03/25 07:47:04;;;;;;;2.92;0.77;;;10.30;97.20;;;;;;1707854;28;20457;-67
2023/03/25 07:47:56;;;;;;;1.40;0.70;;;10.30;97.20;;;;;;1708309;28;20202;-65
2023/03/25 07:48:46;;;;;;;1.27;0.65;;;10.30;97.20;;;;;;1708289;28;20206;-65
2023/03/25 07:49:40;;;;;;;2.23;0.90;;;10.30;97.20;;;;;;1708295;28;20191;-65
2023/03/25 07:50:30;;;;;;;1.80;0.68;;;10.40;97.20;;;;;;1708107;28;20231;-65
2023/03/25 07:51:22;;;;;;;2.60;0.90;;;10.60;97.20;;;;;;1708292;28;20199;-65
2023/03/25 07:52:13;;;;;;;1.70;0.80;;;10.70;97.20;;;;;;1708340;28;20669;-64
2023/03/25 07:53:05;;;;;;;1.63;0.90;;;10.90;97.20;;;;;;1708288;28;20797;-65
2023/03/25 07:53:56;;;;;;;3.72;1.08;;;11.00;97.20;;;;;;1708204;28;20687;-64
2023/03/25 07:54:47;;;;;;;1.53;0.77;;;11.10;97.20;;;;;;1708254;28;20669;-66
2023/03/25 07:55:38;;;;;;;1.83;1.10;;;11.20;97.20;;;;;;1707973;28;20216;-65
2023/03/25 07:56:30;;;;;;;1.97;1.10;;;11.20;97.20;;;;;;1708152;28;20213;-65
2023/03/25 07:57:21;;;;;;;2.95;0.90;;;11.30;97.20;;;;;;1708183;28;20202;-66
2023/03/25 07:58:12;;;;;;;1.10;0.70;;;11.40;97.20;;;;;;1708209;28;20203;-65
2023/03/25 07:59:03;;;;;;;1.20;0.80;;;11.50;97.20;;;;;;1708217;28;20450;-65
2023/03/25 07:59:55;;;;;;;1.87;0.93;;;11.50;97.20;;;;;;1708137;28;20213;-65
2023/03/25 08:00:46;;;;;;;1.33;0.80;;;11.60;97.20;;;;;;1708113;28;20226;-65
2023/03/25 08:01:37;;;;;;;1.40;0.70;;;11.70;97.20;;;;;;1708220;28;20201;-66
2023/03/25 08:02:28;;;;;;;3.38;0.90;;;11.90;97.20;;;;;;1708162;28;20207;-65
2023/03/25 08:03:20;;;;;;;1.97;0.80;;;11.90;97.20;;;;;;1707917;28;20198;-65
2023/03/25 08:04:12;;;;;;;3.38;0.85;;;12.00;97.20;;;;;;1708119;29;20206;-65
2023/03/25 08:05:06;;;;;;;1.15;0.68;;;12.00;97.20;;;;;;1708253;29;20203;-66
2023/03/25 08:05:59;;;;;;;2.13;0.80;;;12.00;97.20;;;;;;1707852;29;20209;-64
2023/03/25 08:06:51;;;;;;;1.90;0.75;;;12.00;97.20;;;;;;1708014;28;20199;-65
2023/03/25 08:07:42;;;;;;;2.00;0.82;;;12.00;97.20;;;;;;1708207;29;20206;-65
2023/03/25 08:08:34;;;;;;;1.03;0.90;;;12.00;97.20;;;;;;1708172;28;20257;-65
2023/03/25 08:09:25;;;;;;;1.00;0.80;;;12.00;97.20;;;;;;1708193;29;20210;-65
2023/03/25 08:10:17;;;;;;;2.20;0.70;;;12.00;97.20;;;;;;1708110;28;20307;-66
2023/03/25 08:11:08;;;;;;;1.02;0.60;;;12.10;97.20;;;;;;1707657;28;20462;-65
2023/03/25 08:12:00;;;;;;;1.63;0.70;;;12.10;97.20;;;;;;1707750;29;20213;-65
2023/03/25 08:12:51;;;;;;;0.95;0.70;;;12.00;97.20;;;;;;1707988;29;20207;-64
2023/03/25 08:13:43;;;;;;;1.38;0.68;;;12.00;97.20;;;;;;1708105;29;20206;-66
2023/03/25 08:14:34;;;;;;;0.98;0.60;;;12.00;97.20;;;;;;1708036;29;20202;-65
2023/03/25 08:15:25;;;;;;;1.60;0.73;;;12.10;97.20;;;;;;1707815;29;20210;-65
2023/03/25 08:16:16;;;;;;;2.10;0.70;;;12.00;97.20;;;;;;1708236;29;20655;-66
2023/03/25 08:17:08;;;;;;;1.80;0.82;;;12.00;97.20;;;;;;1708050;29;20290;-66
2023/03/25 08:18:00;;;;;;;1.77;0.90;;;12.00;97.20;;;;;;1708059;29;20202;-65
2023/03/25 08:18:52;;;;;;;1.00;0.70;;;12.10;97.20;;;;;;1708135;29;20676;-65
2023/03/25 08:19:43;;;;;;;1.55;0.70;;;12.20;97.20;;;;;;1708005;28;20616;-65
2023/03/25 08:20:36;;;;;;;2.63;0.60;;;12.30;97.20;;;;;;1707469;28;20304;-65
2023/03/25 08:21:27;;;;;;;3.65;0.80;;;12.40;97.20;;;;;;1708129;29;20198;-65
2023/03/25 08:22:18;;;;;;;2.20;0.80;;;12.50;97.20;;;;;;1708122;29;20195;-65
2023/03/25 08:23:11;;;;;;;1.52;0.70;;;12.70;97.20;;;;;;1707969;29;20222;-65
2023/03/25 08:24:03;;;;;;;1.90;0.75;;;12.80;97.20;;;;;;1708044;29;20202;-65
2023/03/25 08:24:54;;;;;;;1.33;0.60;;;12.80;97.20;;;;;;1707953;29;20202;-65
2023/03/25 08:25:48;;;;;;;1.00;0.63;;;12.70;97.20;;;;;;1707741;29;20293;-64
2023/03/25 08:26:39;;;;;;;1.10;0.55;;;12.60;97.20;;;;;;1707943;29;20339;-64
2023/03/25 08:27:30;;;;;;;1.00;0.60;;;12.40;97.20;;;;;;1707992;29;20257;-66
2023/03/25 08:28:22;;;;;;;4.30;1.02;;;12.20;97.20;;;;;;1708074;29;20792;-66
2023/03/25 08:29:16;;;;;;;0.90;0.70;;;12.10;97.20;;;;;;1708052;29;20237;-65
2023/03/25 08:30:09;;;;;;;1.65;0.65;;;11.90;97.20;;;;;;1708026;29;20210;-65
2023/03/25 08:31:05;;;;;;;2.55;0.80;;;11.70;97.20;;;;;;1707837;28;20262;-67
2023/03/25 08:31:55;;;;;;;1.70;0.50;;;11.60;97.20;;;;;;1707947;29;20210;-66
2023/03/25 08:32:53;;;;;;;2.00;0.60;;;11.40;97.20;;;;;;1708123;29;20221;-64
2023/03/25 08:33:43;;;;;;;0.90;0.60;;;11.30;97.20;;;;;;1708051;29;20673;-65
2023/03/25 08:34:38;;;;;;;2.60;0.77;;;11.20;97.20;;;;;;1708030;29;20646;-65
2023/03/25 08:35:29;;;;;;;2.85;1.13;;;11.10;97.20;;;;;;1707621;29;20213;-65
2023/03/25 08:36:22;;;;;;;1.10;0.70;;;11.00;97.20;;;;;;1707787;29;20203;-65
2023/03/25 08:37:14;;;;;;;1.40;0.70;;;10.90;97.20;;;;;;1701298;29;20689;-65
2023/03/25 08:38:05;;;;;;;0.85;0.50;;;10.80;97.20;;;;;;1701405;29;20617;-66
2023/03/25 08:38:56;;;;;;;1.15;0.70;;;10.70;97.20;;;;;;1704597;29;20209;-66
2023/03/25 08:39:49;;;;;;;1.33;0.60;;;10.60;97.20;;;;;;1707974;29;20293;-66
2023/03/25 08:40:42;;;;;;;1.27;0.68;;;10.60;97.20;;;;;;1707765;28;20253;-65
2023/03/25 08:41:34;;;;;;;2.35;0.70;;;10.50;97.20;;;;;;1707904;29;20207;-66
2023/03/25 08:42:24;;;;;;;1.85;0.90;;;10.60;97.20;;;;;;1707907;29;20207;-66
2023/03/25 08:43:16;;;;;;;1.27;0.60;;;10.70;97.20;;;;;;1707904;28;20206;-65
2023/03/25 08:44:07;;;;;;;1.40;0.95;;;10.70;97.20;;;;;;1707909;29;20206;-65
2023/03/25 08:44:58;;;;;;;1.20;0.70;;;10.90;97.20;;;;;;1707963;29;20206;-65
2023/03/25 08:45:49;;;;;;;1.60;0.77;;;11.00;97.20;;;;;;1707603;29;20206;-65
2023/03/25 08:46:41;;;;;;;0.83;0.70;;;11.20;97.20;;;;;;1707801;29;20290;-66
2023/03/25 08:47:32;;;;;;;2.13;0.88;;;11.30;97.20;;;;;;1707830;29;20453;-66
2023/03/25 08:48:24;;;;;;;1.20;0.77;;;11.40;97.20;;;;;;1707918;29;20217;-65
2023/03/25 08:49:15;;;;;;;2.25;0.82;;;11.60;97.20;;;;;;1707844;29;20206;-65
2023/03/25 08:50:08;;;;;;;1.20;0.70;;;11.80;97.20;;;;;;1707814;29;20744;-65
2023/03/25 08:50:59;;;;;;;1.50;0.60;;;12.00;97.20;;;;;;1707334;28;20214;-66
2023/03/25 08:51:52;;;;;;;2.80;1.13;;;12.20;97.20;;;;;;1707833;28;20202;-64
2023/03/25 08:52:43;;;;;;;0.90;0.60;;;12.30;97.20;;;;;;1707944;28;20665;-65
2023/03/25 08:53:35;;;;;;;0.80;0.60;;;12.40;97.20;;;;;;1707839;28;20703;-65
2023/03/25 08:54:26;;;;;;;1.10;0.60;;;12.50;97.20;;;;;;1707859;28;20213;-65
2023/03/25 08:55:18;;;;;;;1.10;0.70;;;12.40;97.20;;;;;;1707571;28;20198;-65
2023/03/25 08:56:09;;;;;;;1.95;0.73;;;12.40;97.20;;;;;;1707907;28;20202;-67
2023/03/25 08:57:01;;;;;;;0.80;0.73;;;12.30;97.20;;;;;;1707726;28;20203;-65
2023/03/25 08:57:52;;;;;;;1.33;0.70;;;12.30;97.20;;;;;;1707852;28;20558;-64
2023/03/25 08:58:44;;;;;;;1.33;0.67;;;12.10;97.20;;;;;;1707943;28;20574;-66
2023/03/25 08:59:35;;;;;;;1.13;0.60;;;12.00;97.20;;;;;;1707808;28;20245;-66
2023/03/25 09:00:27;;;;;;;1.17;0.60;;;11.90;97.20;;;;;;1707676;28;20199;-66
2023/03/25 09:01:20;;;;;;;1.10;0.60;;;11.70;97.20;;;;;;1707764;28;20202;-65
2023/03/25 09:02:12;;;;;;;0.90;0.60;;;11.60;97.20;;;;;;1707823;28;20205;-66
2023/03/25 09:03:04;;;;;;;1.05;0.70;;;11.50;97.20;;;;;;1707828;28;20592;-66
2023/03/25 09:03:56;;;;;;;2.08;0.60;;;11.40;97.20;;;;;;1707779;28;20241;-65
2023/03/25 09:04:47;;;;;;;2.38;0.88;;;11.30;97.20;;;;;;1707787;28;20557;-65
2023/03/25 09:05:39;;;;;;;1.50;0.80;;;11.20;97.20;;;;;;1707568;28;20199;-66
2023/03/25 09:06:30;;;;;;;1.70;0.65;;;11.20;97.20;;;;;;1707657;28;20210;-66
2023/03/25 09:07:23;;;;;;;1.50;0.80;;;11.20;97.20;;;;;;1707536;28;20199;-65
2023/03/25 09:08:14;;;;;;;1.63;0.80;;;11.10;97.20;;;;;;1707768;28;20207;-65
2023/03/25 09:09:08;;;;;;;0.80;0.70;;;11.10;97.20;;;;;;1707808;28;20579;-66
2023/03/25 09:09:58;;;;;;;1.00;0.70;;;11.10;97.20;;;;;;1707774;28;20206;-65
2023/03/25 09:10:50;;;;;;;1.63;0.70;;;11.20;97.20;;;;;;1707694;28;20254;-66
2023/03/25 09:11:41;;;;;;;1.85;1.42;;;11.20;97.20;;;;;;1707904;28;20202;-66
2023/03/25 09:12:33;;;;;;;2.70;0.80;;;11.20;97.20;;;;;;1707747;28;20203;-66
2023/03/25 09:13:24;;;;;;;1.00;0.60;;;11.20;97.20;;;;;;1707804;28;20215;-65
2023/03/25 09:14:16;;;;;;;3.33;0.90;;;11.20;97.20;;;;;;1707820;28;20204;-65
2023/03/25 09:15:08;;;;;;;1.42;0.68;;;11.20;97.20;;;;;;1707853;28;20455;-65
2023/03/25 09:16:00;;;;;;;0.90;0.57;;;11.20;97.20;;;;;;1707385;28;20209;-65
2023/03/25 09:16:50;;;;;;;3.30;0.75;;;11.20;97.20;;;;;;1707701;28;20756;-65
2023/03/25 09:17:42;;;;;;;1.93;0.60;;;11.30;97.20;;;;;;1707836;28;20566;-66
2023/03/25 09:18:35;;;;;;;1.35;0.75;;;11.40;97.20;;;;;;1707686;28;20206;-66
2023/03/25 09:19:27;;;;;;;1.05;0.70;;;11.50;97.20;;;;;;1707670;28;20203;-65
2023/03/25 09:20:18;;;;;;;2.22;0.90;;;11.60;97.20;;;;;;1707714;28;20206;-65
2023/03/25 09:21:09;;;;;;;2.20;0.90;;;11.70;97.20;;;;;;1707729;28;20237;-65
2023/03/25 09:22:00;;;;;;;1.55;0.70;;;11.80;97.20;;;;;;1707700;28;20446;-66
2023/03/25 09:22:53;;;;;;;1.73;0.70;;;11.90;97.20;;;;;;1707334;28;20206;-65
2023/03/25 09:23:44;;;;;;;1.55;0.65;;;12.00;97.20;;;;;;1706925;28;20653;-65
2023/03/25 09:24:36;;;;;;;1.53;0.80;;;12.10;97.20;;;;;;1707606;29;20679;-65
2023/03/25 09:25:27;;;;;;;2.10;0.70;;;12.10;97.20;;;;;;1707233;29;20345;-66
2023/03/25 09:26:19;;;;;;;1.20;0.75;;;12.10;97.20;;;;;;1707633;29;20226;-66
2023/03/25 09:27:09;;;;;;;1.30;0.57;;;12.10;97.20;;;;;;1707579;29;20221;-66
2023/03/25 09:28:01;;;;;;;6.73;0.60;;;12.20;97.20;;;;;;1707612;29;20238;-65
2023/03/25 09:28:54;;;;;;;1.17;0.70;;;12.20;97.20;;;;;;1707593;29;20215;-66
2023/03/25 09:29:46;;;;;;;0.95;0.60;;;12.20;97.20;;;;;;1707597;29;20214;-65
2023/03/25 09:30:36;;;;;;;1.27;0.60;;;12.30;97.20;;;;;;1707483;28;20242;-65
2023/03/25 09:31:28;;;;;;;1.87;1.00;;;12.40;97.20;;;;;;1707639;29;20203;-65
2023/03/25 09:32:19;;;;;;;1.45;1.15;;;12.50;97.20;;;;;;1707650;29;20210;-66
2023/03/25 09:33:11;;;;;;;2.27;0.70;;;12.60;97.20;;;;;;1707644;29;20281;-66
2023/03/25 09:34:02;;;;;;;1.98;0.90;;;12.80;97.20;;;;;;1707546;29;20583;-66
2023/03/25 09:34:53;;;;;;;0.80;0.67;;;12.90;97.20;;;;;;1707590;29;20570;-65
2023/03/25 09:35:45;;;;;;;1.70;0.70;;;12.90;97.20;;;;;;1707399;29;20207;-65
2023/03/25 09:36:37;;;;;;;1.77;0.90;;;13.00;97.20;;;;;;1707555;29;20261;-66
2023/03/25 09:37:28;;;;;;;1.17;0.80;;;13.20;97.20;;;;;;1707493;29;20221;-66
2023/03/25 09:38:21;;;;;;;4.10;0.93;;;13.20;97.20;;;;;;1707619;29;20209;-66
2023/03/25 09:39:12;;;;;;;1.45;0.90;;;13.20;97.20;;;;;;1707557;29;20213;-67
2023/03/25 09:40:04;;;;;;;1.20;0.70;;;13.30;97.20;;;;;;1707352;29;20217;-65
2023/03/25 09:40:56;;;;;;;0.80;0.70;;;13.30;97.20;;;;;;1707470;28;20600;-66
2023/03/25 09:42:01;;;;;;;2.03;0.90;;;13.20;97.20;;;;;;1707588;28;20672;-66
2023/03/25 09:43:04;;;;;;;3.13;1.27;;;13.10;97.20;;;;;;1707566;28;20210;-66
2023/03/25 09:44:05;;;;;;;1.15;0.70;;;13.00;97.20;;;;;;1707575;28;20669;-65
2023/03/25 09:45:12;;;;;;;2.15;0.80;;;12.90;97.20;;;;;;1707561;28;20217;-66
2023/03/25 09:46:04;;;;;;;2.33;0.75;;;12.80;97.20;;;;;;1707579;28;20225;-65
2023/03/25 09:46:58;;;;;;;1.40;0.70;;;12.70;97.20;;;;;;1707393;28;20202;-66
2023/03/25 09:47:56;;;;;;;1.27;0.80;;;12.70;97.20;;;;;;1707499;28;20206;-64
2023/03/25 09:48:50;;;;;;;1.70;0.80;;;12.60;97.20;;;;;;1707579;28;20262;-66
2023/03/25 09:49:43;;;;;;;1.00;0.90;;;12.60;97.20;;;;;;1707544;28;20198;-65
2023/03/25 09:50:37;;;;;;;2.88;1.25;;;12.50;97.20;;;;;;1707355;28;20222;-67
2023/03/25 09:51:31;;;;;;;2.28;0.85;;;12.50;97.20;;;;;;1707450;28;20202;-64
2023/03/25 09:52:28;;;;;;;1.45;0.70;;;12.50;97.20;;;;;;1707606;28;20194;-65
2023/03/25 09:53:28;;;;;;;1.40;0.90;;;12.60;97.20;;;;;;1707658;28;20207;-65
2023/03/25 09:54:25;;;;;;;2.30;0.93;;;13.60;97.20;;;;;;1707700;28;20678;-66
2023/03/25 09:55:21;;;;;;;1.30;0.93;;;14.40;97.20;;;;;;1707272;28;20606;-64
2023/03/25 09:56:17;;;;;;;3.13;1.25;;;14.70;97.20;;;;;;1707570;28;20216;-64
2023/03/25 09:57:16;;;;;;;2.28;0.75;;;14.80;97.20;;;;;;1706387;29;20570;-65
2023/03/25 09:58:28;;;;;;;1.25;0.98;;;14.70;97.20;;;;;;1707522;28;20209;-65
2023/03/25 09:59:23;;;;;;;1.20;0.70;;;14.80;97.20;;;;;;1707651;28;20206;-67
2023/03/25 10:00:17;;;;;;;0.80;0.65;;;14.90;97.20;;;;;;1707375;28;20210;-65
2023/03/25 10:01:22;;;;;;;2.50;0.80;;;15.00;97.20;;;;;;1707547;28;20486;-65
2023/03/25 10:02:26;;;;;;;2.50;0.95;;;16.30;97.20;;;;;;1707466;28;20203;-66
2023/03/25 10:03:22;;;;;;;1.20;0.60;;;17.70;97.20;;;;;;1707392;28;20218;-65
2023/03/25 10:04:43;;;;;;;1.10;0.90;;;19.40;97.20;;;;;;1707464;28;20225;-66
2023/03/25 10:05:47;;;;;;;1.40;0.80;;;20.90;97.20;;;;;;1707190;28;20206;-65
2023/03/25 10:06:43;;;;;;;1.60;0.90;;;22.30;97.20;;;;;;1707478;28;20669;-65
2023/03/25 10:07:47;;;;;;;1.70;0.80;;;23.90;97.20;;;;;;1707492;28;20289;-66
2023/03/25 10:09:00;;;;;;;2.63;0.90;;;25.50;97.20;;;;;;1707497;28;20575;-66
2023/03/25 10:10:02;;;;;;;1.23;0.70;;;27.00;97.20;;;;;;1702968;28;20272;-68
2023/03/25 10:11:02;;;;;;;2.40;0.80;;;28.40;97.20;;;;;;1707379;28;20728;-66
2023/03/25 10:12:01;;;;;;;2.00;0.82;;;29.50;97.20;;;;;;1707426;28;20238;-67
2023/03/25 10:13:01;;;;;;;0.90;0.70;;;29.30;97.20;;;;;;1707411;28;20288;-67
2023/03/25 10:13:58;;;;;;;1.83;0.95;;;28.40;97.20;;;;;;1707121;28;20214;-67
2023/03/25 10:15:02;;;;;;;1.05;0.63;;;27.00;97.20;;;;;;1707467;28;20609;-67
2023/03/25 10:15:59;;;;;;;1.65;0.80;;;25.50;97.20;;;;;;1707118;28;20206;-67
2023/03/25 10:17:02;;;;;;;1.58;0.80;;;24.50;97.20;;;;;;1707358;28;20207;-66
2023/03/25 10:18:16;;;;;;;2.10;0.80;;;24.40;97.20;;;;;;1707408;28;20684;-66
2023/03/25 10:19:23;;;;;;;1.30;0.70;;;23.80;97.20;;;;;;1706410;28;20577;-66
2023/03/25 10:20:20;;;;;;;1.38;0.80;;;24.00;97.20;;;;;;1707275;28;20206;-66
2023/03/25 10:21:17;;;;;;;1.75;0.60;;;24.70;97.20;;;;;;1707309;28;20230;-66
2023/03/25 10:22:16;;;;;;;1.10;0.73;;;25.50;97.20;;;;;;1707362;28;20245;-67
2023/03/25 10:23:16;;;;;;;1.42;0.70;;;26.40;97.20;;;;;;1707268;28;20214;-66
2023/03/25 10:24:18;;;;;;;1.70;0.65;;;27.40;97.20;;;;;;1707387;28;20220;-66
2023/03/25 10:25:14;;;;;;;1.25;0.70;;;28.20;97.20;;;;;;1707391;28;20207;-66
2023/03/25 10:26:12;;;;;;;1.50;0.60;;;29.40;97.20;;;;;;1707417;28;20601;-66
2023/03/25 10:27:05;;;;;;;2.25;0.98;;;30.40;97.20;;;;;;1707330;28;20210;-66
2023/03/25 10:27:59;;;;;;;1.15;0.70;;;31.30;95.60;;;;;;1707266;28;20209;-67
2023/03/25 10:28:55;;;;;;;0.80;0.60;;;32.10;95.30;;;;;;1707264;28;20218;-66
2023/03/25 10:29:52;;;;;;;3.22;0.90;;;32.90;93.70;;;;;;1707034;28;20727;-67
2023/03/25 10:30:47;;;;;;;1.02;0.70;;;33.80;92.20;;;;;;1707276;28;20234;-66
2023/03/25 10:31:52;;;;;;;1.10;0.70;;;34.20;88.20;;;;;;1707373;28;20195;-67
2023/03/25 10:32:47;;;;;;;1.35;0.80;;;34.60;87.60;;;;;;1707359;28;20328;-66
2023/03/25 10:33:41;;;;;;;1.52;0.88;;;35.00;86.80;;;;;;1707314;28;20233;-66
2023/03/25 10:34:38;;;;;;;1.48;0.77;;;35.40;85.20;;;;;;1706932;28;20199;-67
2023/03/25 10:35:33;;;;;;;0.80;0.57;;;35.70;85.00;;;;;;1707123;28;20872;-67
2023/03/25 10:36:31;;;;;;;1.45;0.60;;;36.10;84.80;;;;;;1707320;28;20253;-67
2023/03/25 10:37:27;;;;;;;1.25;0.65;;;36.70;83.60;;;;;;1707416;28;20210;-67
2023/03/25 10:38:23;;;;;;;2.55;0.85;;;37.10;82.30;;;;;;1707367;28;20195;-67